logo
App data

Gnomes Garden

Dry summer withered the king’s beloved garden and the surrounding gardens of the kingdom alike. The ruler has fallen ill and the kingdom is in danger. Help the princess save the gardens and make the king better again.
Store | Hub | SteamDB | Site
Developer: Workroom7, Creobit Publisher: 8Floor
Genre: Casual, Strategy
Languages: English, Russian, French, German
Tags: Casual (24), Strategy (24), Time Management (11)
Category: Single-player, Steam Achievements, Steam Trading Cards, Steam Cloud
Release date: Dec 18, 2015
Price: $4.99
Old userscore: 88% Owners: 20,000 .. 50,000
Followers: 190
Peak concurrent players yesterday: 5
Playtime in the last 2 weeks: 03:40 (average) 04:03 (median)
Playtime total: 05:19 (average) 05:32 (median)

Steam Spy is still in beta, so expect major bugs.

Owners data:

Access restricted.

This feature is only available to users with special access rights. Sorry.

If you want to proceed, you need to register or log in first and then back Steam Spy on Patreon. Look for Indie or Pro pledge.

Don't forget to use the same email as on Steam Spy!

Audience in 2 weeks:

Access restricted.

This feature is only available to users with special access rights. Sorry.

If you want to proceed, you need to register or log in first and then back Steam Spy on Patreon. Look for Indie or Pro pledge.

Don't forget to use the same email as on Steam Spy!

Peak daily concurrent players:

CCU data courtesy of SteamDB. Used with permission.

Hourly concurrent players:

YouTube:

The views data is based on top 50 videos uploaded last week. Actual number of views might be more than the number shown.

The displayed number of videos uploaded yesterday is limited to 50, so if there were more videos uploaded, the number will still show 50.

If the game has commonly used word as its name (like "FEAR" or "Volume") its number of Youtube views might be wrong.

Games similar to this one:

# Game Release date
Price
Score rank
(Userscore / Metascore)
Owners
Players
Playtime (Median)
1 Flowers -Le volume sur printemps- Aug 17, 2016 $19.9997% (97%)0 .. 20,0000%00:00 (00:00)
2 Lost Lands: The Four Horsemen Jul 14, 2015 $6.9997% (97%)0 .. 20,0000%00:00 (00:00)
3 Eventide: Slavic Fable Jan 28, 2016 $9.9995% (96%)50,000 .. 100,0002.3%03:23 (02:15)
4 Tradewinds Classics Jul 17, 2009 $4.99N/A (N/A)0 .. 20,0000%00:00 (00:00)
5 Legends of Atlantis: Exodus Apr 9, 2012 $6.99N/A (N/A)0 .. 20,0000%00:00 (00:00)
6 Peggle Nights Oct 15, 2008 $4.9990% (94%/76%)200,000 .. 500,0000%00:00 (00:00)
7 Chuzzle Deluxe Aug 30, 2006 $4.9987% (93%)50,000 .. 100,0000%00:00 (00:00)
8 Hidden Object Bundle 4 in 1 Jun 1, 2014 $7.9987% (93%)20,000 .. 50,0000%00:00 (00:00)
9 Gnomes Garden 2 May 18, 2016 $0.49N/A (N/A)20,000 .. 50,0000%00:00 (00:00)
10 YOU DON’T KNOW JACK Feb 8, 2011 N/A83% (92%/71%)0 .. 20,0000%00:00 (00:00)
11 Alice's Patchwork Mar 3, 2016 $4.9983% (92%)20,000 .. 50,0000%00:00 (00:00)
12 Princess Maker 2 Refine Sep 28, 2016 $19.9983% (92%)20,000 .. 50,00010%00:33 (00:11)
13 Kitty Cat: Jigsaw Puzzles Jul 18, 2016 $1.9979% (91%)50,000 .. 100,0000%00:00 (00:00)
14 Putt-Putt and Pep's Balloon-o-Rama Jan 1, 1996 $4.99N/A (N/A)0 .. 20,0000%00:00 (00:00)
15 Super Jagua Sep 15, 2016 $0.9979% (91%)0 .. 20,0000%00:00 (00:00)
16 Grim Legends 3: The Dark City Jun 2, 2016 $9.9976% (90%)20,000 .. 50,0000%00:00 (00:00)
17 Stikbold! A Dodgeball Adventure Apr 1, 2016 $9.9973% (89%)50,000 .. 100,0000%00:00 (00:00)
18 Luxor 3 Nov 13, 2007 $9.9970% (88%)20,000 .. 50,0000%00:00 (00:00)
19 Lost Grimoires: Stolen Kingdom Nov 10, 2016 $4.9970% (88%)0 .. 20,0000%00:00 (00:00)
20 Shufflepuck Cantina Deluxe Dec 6, 2013 $9.9970% (88%)100,000 .. 200,0000.18%00:06 (00:02)
21 Delicious! Pretty Girls Mahjong Solitaire Oct 14, 2016 $0.9968% (87%)50,000 .. 100,0006.32%02:03 (02:26)
22 Burnout Paradise: The Ultimate Box Feb 3, 2009 $19.9968% (87%/87%)1,000,000 .. 2,000,0001.21%00:52 (00:59)
23 Hidden Object 6-in-1 bundle Mar 16, 2016 $11.9968% (87%)20,000 .. 50,0000%00:00 (00:00)
24 Puzzler World May 28, 2010 $4.9968% (87%)50,000 .. 100,0000%00:00 (00:00)
25 Space Codex May 17, 2016 $0.4965% (86%)50,000 .. 100,0000%00:00 (00:00)
26 SimpleRockets Jun 3, 2015 $7.9962% (85%)20,000 .. 50,0000%00:00 (00:00)
27 Little Racers STREET Feb 6, 2014 $5.9957% (83%/62%)100,000 .. 200,0001.58%00:39 (00:39)
28 LUXOR: Mah Jong Jul 13, 2009 $9.99N/A (N/A)50,000 .. 100,0000%00:00 (00:00)
29 Brink of Consciousness: The Lonely Hearts Murders Nov 24, 2014 $9.9957% (83%)0 .. 20,0000%00:00 (00:00)
30 House of Snark 6-in-1 Bundle Jul 20, 2016 $11.99N/A (N/A)0 .. 20,0000%00:00 (00:00)
31 Combat Wings: Battle of Britain Oct 14, 2009 $0.7455% (82%)100,000 .. 200,0000%00:00 (00:00)
32 My Riding Stables: Life with Horses Mar 27, 2014 $9.9952% (81%)0 .. 20,0000%00:00 (00:00)
33 Crash Dive Jul 6, 2015 $6.9952% (81%)0 .. 20,0000%00:00 (00:00)
34 7 Wonders: Treasures of Seven Nov 14, 2008 $9.9950% (80%)20,000 .. 50,0000%00:00 (00:00)
35 Rotastic Oct 11, 2012 $9.99N/A (N/A)0 .. 20,0000%00:00 (00:00)
36 Typer Shark! Deluxe Aug 30, 2006 $4.9948% (79%)20,000 .. 50,0000%00:00 (00:00)
37 Steel Armor: Blaze of War Mar 5, 2015 $29.9948% (79%/70%)0 .. 20,0000%00:00 (00:00)
38 Qvadriga Jun 13, 2014 $19.9946% (78%/72%)20,000 .. 50,0000%00:00 (00:00)
39 Buzz Aldrin's Space Program Manager Oct 31, 2014 $29.9946% (78%/62%)0 .. 20,0000%00:00 (00:00)
40 Rube Works: The Official Rube Goldberg Invention Game Apr 19, 2014 $4.99N/A (N/A)0 .. 20,0000%00:00 (00:00)
41 Echelon: Wind Warriors Feb 3, 2004 $3.9944% (77%/63%)0 .. 20,0000%00:00 (00:00)
42 Sea Legends: Phantasmal Light Collector's Edition Jan 15, 2012 $4.9942% (76%)20,000 .. 50,0000%00:00 (00:00)
43 The Wizard's Pen Sep 16, 2008 $4.99N/A (N/A)20,000 .. 50,0000%00:00 (00:00)
44 Teddy Floppy Ear - The Race May 22, 2015 $4.9939% (74%)100,000 .. 200,0000.93%01:26 (00:30)
45 Toilet Tycoon Mar 1, 2000 $4.9939% (74%)0 .. 20,0000%00:00 (00:00)
46 Amazing Adventures Around the World Sep 17, 2008 $4.99N/A (N/A)20,000 .. 50,0000%00:00 (00:00)
47 Democracy 3 Africa Apr 12, 2016 $14.9937% (73%)20,000 .. 50,0000%00:00 (00:00)
48 Ski Region Simulator - Gold Edition Jan 16, 2013 $9.9937% (73%)20,000 .. 50,0000%00:00 (00:00)
49 Evolution Planet: Gold Edition Jul 7, 2016 $4.99N/A (N/A)0 .. 20,0000%00:00 (00:00)
50 Amazing Adventures The Lost Tomb Nov 5, 2007 $4.99N/A (N/A)20,000 .. 50,0000%00:00 (00:00)
51 Football Mogul 2014 Sep 4, 2013 $4.99N/A (N/A)20,000 .. 50,0000%00:00 (00:00)
52 Splendor Sep 17, 2015 $9.9934% (71%)0 .. 20,0000%00:00 (00:00)
53 Chronicle Keepers: The Dreaming Garden Jun 11, 2015 $4.9932% (70%)0 .. 20,0000%00:00 (00:00)
54 StuntMANIA Reloaded Nov 13, 2014 $1.6932% (70%)20,000 .. 50,0000%00:00 (00:00)
55 IL-2 Sturmovik: Battle of Stalingrad Oct 22, 2014 $49.9932% (70%/74%)50,000 .. 100,0007.69%10:07 (03:22)
56 Little Farm Jun 10, 2008 $9.9929% (68%)20,000 .. 50,0000%00:00 (00:00)
57 MiniDrivers Aug 20, 2015 $5.9929% (68%)20,000 .. 50,0000%00:00 (00:00)
58 Eagle Flight Dec 20, 2016 $39.9927% (67%/74%)0 .. 20,00033.33%01:06 (00:33)
59 Twisted Lands Trilogy: Collector's Edition Oct 28, 2015 $19.9926% (66%)0 .. 20,0000%00:00 (00:00)
60 Zooloretto Nov 1, 2011 $2.99N/A (N/A)0 .. 20,0000%00:00 (00:00)
61 Farming 6-in-1 bundle Jun 2, 2016 $5.99N/A (N/A)0 .. 20,0000%00:00 (00:00)
62 Castle: Never Judge a Book by its Cover Jul 9, 2013 $9.9924% (64%)20,000 .. 50,0000%00:00 (00:00)
63 Mahjong Pretty Girls Battle : School Girls Edition Jun 22, 2015 $14.9924% (64%)20,000 .. 50,0002.35%02:03 (00:57)
64 Obliteracers Feb 23, 2016 $14.9924% (64%/78%)0 .. 20,0000%00:00 (00:00)
65 Pro Cycling Manager 2014 Jun 19, 2014 $9.9924% (64%)20,000 .. 50,0000%00:00 (00:00)
66 Meridian: Age of Invention Jan 28, 2013 $2.9922% (63%)20,000 .. 50,0000%00:00 (00:00)
67 PAC-MAN CHAMPIONSHIP EDITION 2 Sep 13, 2016 $12.9922% (63%)20,000 .. 50,0001.79%00:17 (00:05)
68 Aerofly FS 1 Flight Simulator Oct 17, 2012 $19.9922% (63%)0 .. 20,0000%00:00 (00:00)
69 City Life 2008 Jul 18, 2008 $9.9922% (63%)20,000 .. 50,0000%00:00 (00:00)
70 Railroad Pioneer Oct 17, 2003 $4.9921% (62%/50%)0 .. 20,0000%00:00 (00:00)
71 Trackmania Turbo Mar 24, 2016 $39.9920% (61%)20,000 .. 50,0006.25%00:08 (00:02)
72 Football Club Simulator - FCS 18 Nov 3, 2017 $9.9519% (60%)20,000 .. 50,0000%00:00 (00:00)
73 Contract With The Devil Dec 11, 2015 $4.9919% (60%)20,000 .. 50,0000.41%05:44 (01:54)
74 Hacker Evolution: Untold Sep 14, 2010 $4.9918% (59%)200,000 .. 500,0000.56%03:35 (01:39)
75 Riding Star - Horse Championship! Mar 27, 2014 $9.99N/A (N/A)0 .. 20,0000%00:00 (00:00)
76 Mystery Masters: Psycho Train Deluxe Edition Feb 3, 2015 $9.9915% (56%)20,000 .. 50,0000.75%01:35 (00:31)
77 Luxor: Quest for the Afterlife Dec 15, 2008 $9.99N/A (N/A)20,000 .. 50,0000%00:00 (00:00)
78 Cities XL Platinum Feb 6, 2013 $9.9915% (55%)200,000 .. 500,0000.43%00:01 (00:00)
79 Gems of the Aztecs Apr 22, 2016 $0.4914% (54%)50,000 .. 100,0000%00:00 (00:00)
80 Chess Knight 2 Sep 11, 2016 $4.9913% (53%)50,000 .. 100,0000%00:00 (00:00)
81 Pacific Storm Allies May 25, 2007 $7.9913% (53%/60%)50,000 .. 100,0000%00:00 (00:00)
82 My Best Friends - Cats & Dogs Mar 27, 2014 $9.99N/A (N/A)0 .. 20,0000%00:00 (00:00)
83 Shadows: Price For Our Sins Bonus Edition Mar 21, 2013 $9.9911% (50%)50,000 .. 100,0000%00:00 (00:00)
84 Pure Pool Jul 31, 2014 $9.9910% (49%/68%)0 .. 20,0000%00:00 (00:00)
85 300 Dwarves Jun 17, 2013 $6.9910% (48%)0 .. 20,0000%00:00 (00:00)
86 My Riding Stables - your horse world Mar 28, 2014 $9.99N/A (N/A)0 .. 20,0000%00:00 (00:00)
87 Ghost Encounters: Deadwood - Collector's Edition Mar 13, 2015 $4.999% (46%)0 .. 20,0000%00:00 (00:00)
88 Lords of Football Apr 5, 2013 $14.999% (46%/52%)20,000 .. 50,0000%00:00 (00:00)
89 Ludo Supremo Jun 8, 2016 $2.998% (45%)20,000 .. 50,0000%00:00 (00:00)
90 Transport Giant Jun 8, 2004 $9.998% (45%)100,000 .. 200,0000%00:00 (00:00)
91 Professional Farmer 2014 Nov 27, 2013 $14.998% (44%)200,000 .. 500,0000%00:00 (00:00)
92 Silent Hunter 5: Battle of the Atlantic Mar 2010 $9.997% (41%/62%)50,000 .. 100,0004.76%00:02 (00:00)
93 Echelon Apr 15, 2001 $3.996% (39%/70%)0 .. 20,0000%00:00 (00:00)
94 Airport Firefighters - The Simulation May 13, 2015 $14.994% (35%)20,000 .. 50,0000%00:00 (00:00)
95 Princess Isabella: The Rise of an Heir May 12, 2016 $9.994% (35%)0 .. 20,0000%00:00 (00:00)
96 Industry Empire Jul 30, 2014 $19.993% (31%)20,000 .. 50,0000%00:00 (00:00)
97 Fill Up! Feb 17, 2016 $2.99N/A (N/A)0 .. 20,0000%00:00 (00:00)
98 Driving School Simulator Sep 25, 2014 $14.992% (21%)0 .. 20,0000%00:00 (00:00)
99 Switch Galaxy Ultra Nov 20, 2015 $9.991% (17%)20,000 .. 50,0000%00:00 (00:00)
100 Luxury Hotel Emporium Aug 7, 2015 $4.99N/A (N/A)0 .. 20,0000%00:00 (00:00)
101 Black Viper: Sophia's Fate Sep 5, 2014 $9.99N/A (N/A)0 .. 20,0000%00:00 (00:00)
102 Tropical Fish Shop 2 Feb 10, 2012 $3.99N/A (N/A)0 .. 20,0000%00:00 (00:00)
103 Solitaire Christmas. Match 2 Cards Dec 24, 2015 $4.99N/A (N/A)20,000 .. 50,0000.58%05:34 (01:51)
104 Lost Legends: The Weeping Woman Collector's Edition Oct 21, 2015 $14.99N/A (N/A)20,000 .. 50,0000%00:00 (00:00)
105 Them - The Summoning May 16, 2014 $4.99N/A (N/A)0 .. 20,0000%00:00 (00:00)
106 Discovery! A Seek and Find Adventure Jul 29, 2008 $9.99N/A (N/A)0 .. 20,0000%00:00 (00:00)
107 Heartomics: Nokori Mar 25, 2016 $1.99N/A (N/A)0 .. 20,0000%00:00 (00:00)
108 Barnyard Mahjong 3 Jul 29, 2016 $4.99N/A (N/A)50,000 .. 100,0000.78%00:30 (00:10)
109 My Pet Hotel Mar 27, 2014 $9.99N/A (N/A)0 .. 20,0000%00:00 (00:00)
110 Dessert Storm Oct 23, 2016 $1.99N/A (N/A)20,000 .. 50,0000%00:00 (00:00)
111 The Hidden Dragon Jul 26, 2016 $4.99N/A (N/A)0 .. 20,0000%00:00 (00:00)
112 Bubble Blowout Oct 24, 2016 $1.99N/A (N/A)20,000 .. 50,0000%00:00 (00:00)
113 Block Blowout Oct 26, 2016 $1.99N/A (N/A)20,000 .. 50,0000%00:00 (00:00)
114 Fantastic 4 In A Row 2 Aug 15, 2016 $1.99N/A (N/A)50,000 .. 100,0000%00:00 (00:00)
115 Adventures of Robinson Crusoe Jan 9, 2015 $9.99N/A (N/A)20,000 .. 50,0000%00:00 (00:00)
116 Escape The Past Sep 14, 2016 $4.99N/A (N/A)0 .. 20,0000%00:00 (00:00)
117 Rush for gold: California Mar 9, 2016 $3.99N/A (N/A)0 .. 20,0000.37%02:43 (00:54)

Owners of this game also own:

Access restricted.

This feature is only available to users with special access rights. Sorry.

If you want to proceed, you need to register or log in first and then back Steam Spy on Patreon. Look for Indie or Pro pledge.

Don't forget to use the same email as on Steam Spy!

Playtime distribution:

Access restricted.

This feature is only available to users with special access rights. Sorry.

If you want to proceed, you need to register or log in first and then back Steam Spy on Patreon. Look for Indie or Pro pledge.

Don't forget to use the same email as on Steam Spy!

Playtime (2 weeks):

Access restricted.

This feature is only available to users with special access rights. Sorry.

If you want to proceed, you need to register or log in first and then back Steam Spy on Patreon. Look for Indie or Pro pledge.

Don't forget to use the same email as on Steam Spy!

User reviews:

Login required.

Please register or log in to see this information.